sensor_id;sensor_type;location;lat;lon;timestamp;P1;durP1;ratioP1;P2;durP2;ratioP2
20857;SDS011;10589;53.636;10.012;2024-02-14T04:46:17;13.20;;;6.07;;
20857;SDS011;10589;53.636;10.012;2024-02-14T04:48:42;8.43;;;6.50;;
20857;SDS011;10589;53.636;10.012;2024-02-14T04:51:08;9.83;;;6.87;;
20857;SDS011;10589;53.636;10.012;2024-02-14T04:53:33;16.30;;;7.10;;
20857;SDS011;10589;53.636;10.012;2024-02-14T04:55:59;8.23;;;5.40;;
20857;SDS011;10589;53.636;10.012;2024-02-14T04:58:25;10.67;;;6.70;;
20857;SDS011;10589;53.636;10.012;2024-02-14T05:00:52;12.57;;;7.63;;
20857;SDS011;10589;53.636;10.012;2024-02-14T05:03:17;12.33;;;7.50;;
20857;SDS011;10589;53.636;10.012;2024-02-14T05:05:43;12.03;;;7.60;;
20857;SDS011;10589;53.636;10.012;2024-02-14T05:08:09;13.60;;;7.37;;
20857;SDS011;10589;53.636;10.012;2024-02-14T05:10:34;13.27;;;8.10;;
20857;SDS011;10589;53.636;10.012;2024-02-14T05:13:00;11.20;;;7.33;;
20857;SDS011;10589;53.636;10.012;2024-02-14T05:15:26;11.80;;;8.27;;
20857;SDS011;10589;53.636;10.012;2024-02-14T05:17:52;10.83;;;7.43;;
20857;SDS011;10589;53.636;10.012;2024-02-14T05:20:19;14.47;;;8.30;;
20857;SDS011;10589;53.636;10.012;2024-02-14T05:22:45;12.57;;;8.00;;
20857;SDS011;10589;53.636;10.012;2024-02-14T05:25:11;15.30;;;9.33;;
20857;SDS011;10589;53.636;10.012;2024-02-14T05:27:37;13.77;;;8.53;;
20857;SDS011;10589;53.636;10.012;2024-02-14T05:30:03;13.63;;;8.87;;
20857;SDS011;10589;53.636;10.012;2024-02-14T05:32:32;13.57;;;8.97;;
20857;SDS011;10589;53.636;10.012;2024-02-14T05:34:58;13.83;;;9.10;;
20857;SDS011;10589;53.636;10.012;2024-02-14T05:37:24;15.97;;;9.00;;
20857;SDS011;10589;53.636;10.012;2024-02-14T05:39:52;19.13;;;9.40;;
20857;SDS011;10589;53.636;10.012;2024-02-14T05:42:18;15.27;;;9.63;;
20857;SDS011;10589;53.636;10.012;2024-02-14T05:44:44;12.50;;;9.73;;
20857;SDS011;10589;53.636;10.012;2024-02-14T05:47:09;16.37;;;9.80;;
20857;SDS011;10589;53.636;10.012;2024-02-14T05:49:36;14.10;;;10.87;;
20857;SDS011;10589;53.636;10.012;2024-02-14T05:52:03;14.20;;;10.77;;
20857;SDS011;10589;53.636;10.012;2024-02-14T05:54:29;19.53;;;11.63;;
20857;SDS011;10589;53.636;10.012;2024-02-14T05:56:54;15.03;;;10.43;;
20857;SDS011;10589;53.636;10.012;2024-02-14T05:59:21;17.37;;;11.90;;
20857;SDS011;10589;53.636;10.012;2024-02-14T06:01:47;17.27;;;11.07;;
20857;SDS011;10589;53.636;10.012;2024-02-14T06:04:12;17.53;;;11.40;;
20857;SDS011;10589;53.636;10.012;2024-02-14T06:06:38;13.17;;;10.73;;
20857;SDS011;10589;53.636;10.012;2024-02-14T06:09:03;14.70;;;10.47;;
20857;SDS011;10589;53.636;10.012;2024-02-14T06:11:34;14.80;;;10.60;;
20857;SDS011;10589;53.636;10.012;2024-02-14T06:14:01;19.03;;;11.33;;
20857;SDS011;10589;53.636;10.012;2024-02-14T06:16:26;16.63;;;10.80;;
20857;SDS011;10589;53.636;10.012;2024-02-14T06:18:52;15.57;;;11.30;;
20857;SDS011;10589;53.636;10.012;2024-02-14T06:21:18;16.83;;;10.83;;
20857;SDS011;10589;53.636;10.012;2024-02-14T06:23:44;20.77;;;11.83;;
20857;SDS011;10589;53.636;10.012;2024-02-14T06:26:12;18.73;;;12.73;;
20857;SDS011;10589;53.636;10.012;2024-02-14T06:28:39;20.03;;;12.30;;
20857;SDS011;10589;53.636;10.012;2024-02-14T06:31:05;16.23;;;12.03;;
20857;SDS011;10589;53.636;10.012;2024-02-14T06:33:30;20.50;;;12.97;;
20857;SDS011;10589;53.636;10.012;2024-02-14T06:35:56;18.13;;;12.40;;
20857;SDS011;10589;53.636;10.012;2024-02-14T06:38:21;15.90;;;12.30;;
20857;SDS011;10589;53.636;10.012;2024-02-14T06:40:47;15.63;;;12.23;;
20857;SDS011;10589;53.636;10.012;2024-02-14T06:43:13;16.13;;;12.57;;
20857;SDS011;10589;53.636;10.012;2024-02-14T06:45:38;16.93;;;11.90;;
20857;SDS011;10589;53.636;10.012;2024-02-14T06:48:04;20.80;;;13.47;;
20857;SDS011;10589;53.636;10.012;2024-02-14T06:50:30;19.10;;;12.57;;
20857;SDS011;10589;53.636;10.012;2024-02-14T06:52:56;19.13;;;12.97;;
20857;SDS011;10589;53.636;10.012;2024-02-14T06:55:25;17.93;;;12.80;;
20857;SDS011;10589;53.636;10.012;2024-02-14T06:57:52;18.10;;;13.23;;
20857;SDS011;10589;53.636;10.012;2024-02-14T07:00:18;21.10;;;13.37;;
20857;SDS011;10589;53.636;10.012;2024-02-14T07:02:43;20.60;;;13.70;;
20857;SDS011;10589;53.636;10.012;2024-02-14T07:05:12;20.40;;;13.57;;
20857;SDS011;10589;53.636;10.012;2024-02-14T07:07:39;20.80;;;13.63;;
20857;SDS011;10589;53.636;10.012;2024-02-14T07:10:08;17.80;;;12.27;;
20857;SDS011;10589;53.636;10.012;2024-02-14T07:12:33;19.00;;;13.47;;
20857;SDS011;10589;53.636;10.012;2024-02-14T07:15:01;19.30;;;13.00;;
20857;SDS011;10589;53.636;10.012;2024-02-14T07:17:29;19.13;;;12.93;;
20857;SDS011;10589;53.636;10.012;2024-02-14T07:19:54;21.73;;;13.43;;
20857;SDS011;10589;53.636;10.012;2024-02-14T07:22:20;19.57;;;13.10;;
20857;SDS011;10589;53.636;10.012;2024-02-14T07:24:46;18.23;;;13.07;;
20857;SDS011;10589;53.636;10.012;2024-02-14T07:27:12;20.97;;;14.03;;
20857;SDS011;10589;53.636;10.012;2024-02-14T07:29:39;20.60;;;14.20;;
20857;SDS011;10589;53.636;10.012;2024-02-14T07:32:04;18.47;;;13.33;;
20857;SDS011;10589;53.636;10.012;2024-02-14T07:34:31;18.90;;;14.07;;
20857;SDS011;10589;53.636;10.012;2024-02-14T07:36:57;24.90;;;14.80;;
20857;SDS011;10589;53.636;10.012;2024-02-14T07:39:22;22.13;;;14.90;;
20857;SDS011;10589;53.636;10.012;2024-02-14T07:41:48;22.27;;;14.37;;
20857;SDS011;10589;53.636;10.012;2024-02-14T07:44:14;21.77;;;14.70;;
20857;SDS011;10589;53.636;10.012;2024-02-14T07:46:43;24.33;;;16.10;;
20857;SDS011;10589;53.636;10.012;2024-02-14T07:49:09;20.23;;;15.07;;
20857;SDS011;10589;53.636;10.012;2024-02-14T07:51:35;22.53;;;15.13;;
20857;SDS011;10589;53.636;10.012;2024-02-14T07:54:04;22.87;;;15.53;;
20857;SDS011;10589;53.636;10.012;2024-02-14T07:56:30;22.03;;;15.50;;
20857;SDS011;10589;53.636;10.012;2024-02-14T07:58:56;26.57;;;15.90;;
20857;SDS011;10589;53.636;10.012;2024-02-14T08:01:22;24.53;;;16.57;;
20857;SDS011;10589;53.636;10.012;2024-02-14T08:03:48;25.23;;;16.70;;
20857;SDS011;10589;53.636;10.012;2024-02-14T08:06:14;24.57;;;15.60;;
20857;SDS011;10589;53.636;10.012;2024-02-14T08:08:39;21.90;;;15.47;;
20857;SDS011;10589;53.636;10.012;2024-02-14T08:11:05;24.57;;;15.43;;
20857;SDS011;10589;53.636;10.012;2024-02-14T08:13:31;23.17;;;15.83;;
20857;SDS011;10589;53.636;10.012;2024-02-14T08:15:57;22.97;;;15.40;;
20857;SDS011;10589;53.636;10.012;2024-02-14T08:18:25;23.40;;;15.80;;
20857;SDS011;10589;53.636;10.012;2024-02-14T08:20:52;21.57;;;15.57;;
20857;SDS011;10589;53.636;10.012;2024-02-14T08:23:18;22.77;;;14.53;;
20857;SDS011;10589;53.636;10.012;2024-02-14T08:25:45;22.57;;;14.70;;
20857;SDS011;10589;53.636;10.012;2024-02-14T08:28:11;23.23;;;15.03;;
20857;SDS011;10589;53.636;10.012;2024-02-14T08:30:36;22.67;;;15.43;;
20857;SDS011;10589;53.636;10.012;2024-02-14T08:33:03;20.67;;;14.10;;
20857;SDS011;10589;53.636;10.012;2024-02-14T08:35:28;22.63;;;14.57;;
20857;SDS011;10589;53.636;10.012;2024-02-14T08:37:54;21.97;;;14.30;;
20857;SDS011;10589;53.636;10.012;2024-02-14T08:40:20;22.47;;;14.53;;
20857;SDS011;10589;53.636;10.012;2024-02-14T08:42:45;21.07;;;13.77;;
20857;SDS011;10589;53.636;10.012;2024-02-14T08:45:12;22.60;;;14.20;;
20857;SDS011;10589;53.636;10.012;2024-02-14T08:47:38;20.27;;;13.60;;
20857;SDS011;10589;53.636;10.012;2024-02-14T08:50:05;22.03;;;14.20;;
20857;SDS011;10589;53.636;10.012;2024-02-14T08:52:31;20.80;;;13.37;;
20857;SDS011;10589;53.636;10.012;2024-02-14T08:54:57;19.90;;;13.00;;
20857;SDS011;10589;53.636;10.012;2024-02-14T08:57:23;18.10;;;12.60;;
20857;SDS011;10589;53.636;10.012;2024-02-14T08:59:48;21.03;;;12.63;;
20857;SDS011;10589;53.636;10.012;2024-02-14T09:02:14;19.33;;;13.03;;
20857;SDS011;10589;53.636;10.012;2024-02-14T09:04:41;18.27;;;12.13;;
20857;SDS011;10589;53.636;10.012;2024-02-14T09:07:07;18.70;;;11.83;;
20857;SDS011;10589;53.636;10.012;2024-02-14T09:09:33;18.57;;;11.97;;
20857;SDS011;10589;53.636;10.012;2024-02-14T09:11:59;18.83;;;11.83;;
20857;SDS011;10589;53.636;10.012;2024-02-14T09:14:31;16.70;;;10.70;;
20857;SDS011;10589;53.636;10.012;2024-02-14T09:16:56;16.43;;;11.20;;
20857;SDS011;10589;53.636;10.012;2024-02-14T09:19:23;21.27;;;11.63;;
20857;SDS011;10589;53.636;10.012;2024-02-14T09:21:50;16.80;;;11.03;;
20857;SDS011;10589;53.636;10.012;2024-02-14T09:24:15;15.43;;;10.53;;
20857;SDS011;10589;53.636;10.012;2024-02-14T09:26:41;16.47;;;10.90;;
20857;SDS011;10589;53.636;10.012;2024-02-14T09:29:08;14.87;;;11.00;;
20857;SDS011;10589;53.636;10.012;2024-02-14T09:31:35;18.97;;;11.33;;
20857;SDS011;10589;53.636;10.012;2024-02-14T09:34:01;12.73;;;9.57;;
20857;SDS011;10589;53.636;10.012;2024-02-14T09:36:27;14.80;;;10.37;;
20857;SDS011;10589;53.636;10.012;2024-02-14T09:38:54;15.73;;;10.17;;
20857;SDS011;10589;53.636;10.012;2024-02-14T09:44:20;17.70;;;10.53;;
20857;SDS011;10589;53.636;10.012;2024-02-14T09:46:47;15.30;;;10.27;;
20857;SDS011;10589;53.636;10.012;2024-02-14T09:49:13;17.73;;;10.87;;
20857;SDS011;10589;53.636;10.012;2024-02-14T09:51:41;15.47;;;9.80;;
20857;SDS011;10589;53.636;10.012;2024-02-14T09:54:09;15.03;;;10.23;;
20857;SDS011;10589;53.636;10.012;2024-02-14T09:56:36;14.43;;;10.17;;
20857;SDS011;10589;53.636;10.012;2024-02-14T09:59:02;12.77;;;9.73;;
20857;SDS011;10589;53.636;10.012;2024-02-14T10:01:27;15.43;;;10.33;;
20857;SDS011;10589;53.636;10.012;2024-02-14T10:03:53;15.77;;;10.20;;
20857;SDS011;10589;53.636;10.012;2024-02-14T10:06:20;12.70;;;9.67;;
20857;SDS011;10589;53.636;10.012;2024-02-14T10:08:49;13.07;;;9.10;;
20857;SDS011;10589;53.636;10.012;2024-02-14T10:11:18;12.03;;;8.27;;
20857;SDS011;10589;53.636;10.012;2024-02-14T10:13:46;10.57;;;8.20;;
20857;SDS011;10589;53.636;10.012;2024-02-14T10:16:13;10.27;;;7.90;;
20857;SDS011;10589;53.636;10.012;2024-02-14T10:18:43;11.10;;;7.57;;
20857;SDS011;10589;53.636;10.012;2024-02-14T10:21:14;9.53;;;7.23;;
20857;SDS011;10589;53.636;10.012;2024-02-14T10:23:42;11.70;;;6.33;;
20857;SDS011;10589;53.636;10.012;2024-02-14T10:26:08;8.73;;;6.03;;
20857;SDS011;10589;53.636;10.012;2024-02-14T10:28:34;10.23;;;6.60;;
20857;SDS011;10589;53.636;10.012;2024-02-14T10:31:00;10.90;;;6.43;;
20857;SDS011;10589;53.636;10.012;2024-02-14T10:33:27;10.90;;;6.70;;
20857;SDS011;10589;53.636;10.012;2024-02-14T10:35:54;9.87;;;6.67;;
20857;SDS011;10589;53.636;10.012;2024-02-14T10:38:22;9.77;;;5.63;;
20857;SDS011;10589;53.636;10.012;2024-02-14T10:40:49;7.00;;;5.53;;
20857;SDS011;10589;53.636;10.012;2024-02-14T10:43:16;8.13;;;5.73;;
20857;SDS011;10589;53.636;10.012;2024-02-14T10:45:42;7.30;;;5.67;;
20857;SDS011;10589;53.636;10.012;2024-02-14T10:48:11;7.97;;;6.20;;
20857;SDS011;10589;53.636;10.012;2024-02-14T10:50:38;8.67;;;5.70;;
20857;SDS011;10589;53.636;10.012;2024-02-14T10:53:06;7.63;;;6.07;;
20857;SDS011;10589;53.636;10.012;2024-02-14T10:55:42;9.73;;;6.20;;
20857;SDS011;10589;53.636;10.012;2024-02-14T10:58:16;10.57;;;7.00;;
20857;SDS011;10589;53.636;10.012;2024-02-14T11:00:43;6.93;;;5.93;;
20857;SDS011;10589;53.636;10.012;2024-02-14T11:03:09;11.10;;;6.40;;
20857;SDS011;10589;53.636;10.012;2024-02-14T11:05:45;9.70;;;5.83;;
20857;SDS011;10589;53.636;10.012;2024-02-14T11:08:21;8.63;;;6.03;;
20857;SDS011;10589;53.636;10.012;2024-02-14T11:10:54;7.37;;;5.63;;
20857;SDS011;10589;53.636;10.012;2024-02-14T11:13:21;6.00;;;4.80;;
20857;SDS011;10589;53.636;10.012;2024-02-14T11:15:51;5.90;;;5.00;;
20857;SDS011;10589;53.636;10.012;2024-02-14T11:18:28;5.57;;;4.83;;
20857;SDS011;10589;53.636;10.012;2024-02-14T11:20:55;5.40;;;4.67;;
20857;SDS011;10589;53.636;10.012;2024-02-14T11:23:23;6.07;;;4.70;;
20857;SDS011;10589;53.636;10.012;2024-02-14T11:25:48;5.50;;;4.53;;
20857;SDS011;10589;53.636;10.012;2024-02-14T11:30:47;5.80;;;4.50;;
20857;SDS011;10589;53.636;10.012;2024-02-14T11:33:22;6.47;;;4.53;;
20857;SDS011;10589;53.636;10.012;2024-02-14T11:35:52;5.70;;;4.97;;
20857;SDS011;10589;53.636;10.012;2024-02-14T11:38:21;6.43;;;4.63;;
20857;SDS011;10589;53.636;10.012;2024-02-14T11:40:50;6.30;;;5.20;;
20857;SDS011;10589;53.636;10.012;2024-02-14T11:43:18;6.83;;;5.63;;
20857;SDS011;10589;53.636;10.012;2024-02-14T11:45:45;6.17;;;5.07;;
20857;SDS011;10589;53.636;10.012;2024-02-14T11:48:14;6.33;;;5.27;;
20857;SDS011;10589;53.636;10.012;2024-02-14T11:50:51;6.50;;;5.30;;
20857;SDS011;10589;53.636;10.012;2024-02-14T11:53:18;5.27;;;4.73;;
20857;SDS011;10589;53.636;10.012;2024-02-14T11:55:44;5.97;;;4.43;;
20857;SDS011;10589;53.636;10.012;2024-02-14T11:58:14;5.03;;;4.53;;
20857;SDS011;10589;53.636;10.012;2024-02-14T12:00:41;7.40;;;4.70;;
20857;SDS011;10589;53.636;10.012;2024-02-14T12:03:11;5.93;;;5.03;;
20857;SDS011;10589;53.636;10.012;2024-02-14T12:05:45;4.97;;;4.43;;
20857;SDS011;10589;53.636;10.012;2024-02-14T12:08:12;5.67;;;5.13;;
20857;SDS011;10589;53.636;10.012;2024-02-14T12:10:39;5.83;;;4.90;;
20857;SDS011;10589;53.636;10.012;2024-02-14T12:13:13;6.17;;;5.50;;
20857;SDS011;10589;53.636;10.012;2024-02-14T12:15:40;6.30;;;4.73;;
20857;SDS011;10589;53.636;10.012;2024-02-14T12:18:07;5.57;;;4.33;;
20857;SDS011;10589;53.636;10.012;2024-02-14T12:20:35;5.40;;;4.90;;
20857;SDS011;10589;53.636;10.012;2024-02-14T12:23:02;5.90;;;4.97;;
20857;SDS011;10589;53.636;10.012;2024-02-14T12:25:28;7.57;;;5.27;;
20857;SDS011;10589;53.636;10.012;2024-02-14T12:27:56;5.07;;;4.57;;
20857;SDS011;10589;53.636;10.012;2024-02-14T12:30:22;5.17;;;4.37;;
20857;SDS011;10589;53.636;10.012;2024-02-14T12:33:00;7.20;;;5.17;;
20857;SDS011;10589;53.636;10.012;2024-02-14T12:35:33;5.83;;;4.40;;
20857;SDS011;10589;53.636;10.012;2024-02-14T12:38:00;7.57;;;4.80;;
20857;SDS011;10589;53.636;10.012;2024-02-14T12:40:26;5.77;;;4.37;;
20857;SDS011;10589;53.636;10.012;2024-02-14T12:42:54;6.83;;;4.93;;
20857;SDS011;10589;53.636;10.012;2024-02-14T12:45:19;4.30;;;3.80;;
20857;SDS011;10589;53.636;10.012;2024-02-14T12:47:45;6.33;;;4.60;;
20857;SDS011;10589;53.636;10.012;2024-02-14T12:50:10;5.57;;;4.70;;
20857;SDS011;10589;53.636;10.012;2024-02-14T12:52:36;4.93;;;4.27;;
20857;SDS011;10589;53.636;10.012;2024-02-14T12:55:02;6.97;;;4.73;;
20857;SDS011;10589;53.636;10.012;2024-02-14T12:57:28;5.03;;;4.30;;
20857;SDS011;10589;53.636;10.012;2024-02-14T12:59:54;6.00;;;5.30;;
20857;SDS011;10589;53.636;10.012;2024-02-14T13:02:19;7.70;;;5.00;;
20857;SDS011;10589;53.636;10.012;2024-02-14T13:04:45;7.30;;;5.03;;
20857;SDS011;10589;53.636;10.012;2024-02-14T13:07:11;6.37;;;4.77;;
20857;SDS011;10589;53.636;10.012;2024-02-14T13:09:37;7.17;;;5.20;;
20857;SDS011;10589;53.636;10.012;2024-02-14T13:12:03;7.30;;;4.63;;
20857;SDS011;10589;53.636;10.012;2024-02-14T13:14:31;7.00;;;5.03;;
20857;SDS011;10589;53.636;10.012;2024-02-14T13:16:58;6.33;;;4.80;;
20857;SDS011;10589;53.636;10.012;2024-02-14T13:19:23;8.10;;;5.80;;
20857;SDS011;10589;53.636;10.012;2024-02-14T13:21:49;8.33;;;5.87;;
20857;SDS011;10589;53.636;10.012;2024-02-14T13:24:14;9.37;;;5.90;;
20857;SDS011;10589;53.636;10.012;2024-02-14T13:26:40;9.57;;;7.13;;
20857;SDS011;10589;53.636;10.012;2024-02-14T13:29:06;10.33;;;6.60;;
20857;SDS011;10589;53.636;10.012;2024-02-14T13:31:32;10.47;;;7.33;;
20857;SDS011;10589;53.636;10.012;2024-02-14T13:33:57;12.03;;;7.93;;
20857;SDS011;10589;53.636;10.012;2024-02-14T13:36:24;10.77;;;7.83;;
20857;SDS011;10589;53.636;10.012;2024-02-14T13:38:50;8.90;;;6.90;;
20857;SDS011;10589;53.636;10.012;2024-02-14T13:41:15;10.70;;;7.50;;
20857;SDS011;10589;53.636;10.012;2024-02-14T13:43:41;10.10;;;7.77;;
20857;SDS011;10589;53.636;10.012;2024-02-14T13:46:07;11.47;;;8.30;;
20857;SDS011;10589;53.636;10.012;2024-02-14T13:48:34;10.80;;;7.30;;
20857;SDS011;10589;53.636;10.012;2024-02-14T13:51:00;10.67;;;8.07;;
20857;SDS011;10589;53.636;10.012;2024-02-14T13:53:27;13.40;;;8.40;;
20857;SDS011;10589;53.636;10.012;2024-02-14T13:55:52;11.73;;;8.23;;
20857;SDS011;10589;53.636;10.012;2024-02-14T13:58:18;13.60;;;8.43;;
20857;SDS011;10589;53.636;10.012;2024-02-14T14:00:44;11.93;;;8.30;;
20857;SDS011;10589;53.636;10.012;2024-02-14T14:03:10;12.13;;;9.03;;
20857;SDS011;10589;53.636;10.012;2024-02-14T14:05:36;12.10;;;8.53;;
20857;SDS011;10589;53.636;10.012;2024-02-14T14:08:02;10.20;;;7.37;;
20857;SDS011;10589;53.636;10.012;2024-02-14T14:10:28;12.30;;;8.50;;
20857;SDS011;10589;53.636;10.012;2024-02-14T14:12:54;13.03;;;9.27;;
20857;SDS011;10589;53.636;10.012;2024-02-14T14:15:20;14.70;;;9.47;;
20857;SDS011;10589;53.636;10.012;2024-02-14T14:17:47;11.43;;;8.57;;
20857;SDS011;10589;53.636;10.012;2024-02-14T14:20:12;14.70;;;9.10;;
20857;SDS011;10589;53.636;10.012;2024-02-14T14:22:39;12.90;;;8.97;;
20857;SDS011;10589;53.636;10.012;2024-02-14T14:25:05;12.40;;;8.87;;
20857;SDS011;10589;53.636;10.012;2024-02-14T14:27:33;15.93;;;9.93;;
20857;SDS011;10589;53.636;10.012;2024-02-14T14:29:59;13.47;;;8.83;;
20857;SDS011;10589;53.636;10.012;2024-02-14T14:32:24;13.20;;;9.10;;
20857;SDS011;10589;53.636;10.012;2024-02-14T14:34:50;12.73;;;8.27;;
20857;SDS011;10589;53.636;10.012;2024-02-14T14:37:15;14.50;;;9.10;;
20857;SDS011;10589;53.636;10.012;2024-02-14T14:39:41;16.33;;;9.43;;
20857;SDS011;10589;53.636;10.012;2024-02-14T14:42:08;14.00;;;9.00;;
20857;SDS011;10589;53.636;10.012;2024-02-14T14:44:34;11.27;;;8.20;;
20857;SDS011;10589;53.636;10.012;2024-02-14T14:47:00;14.27;;;9.03;;
20857;SDS011;10589;53.636;10.012;2024-02-14T14:49:27;15.27;;;9.47;;
20857;SDS011;10589;53.636;10.012;2024-02-14T14:51:52;14.87;;;9.50;;
20857;SDS011;10589;53.636;10.012;2024-02-14T14:54:19;13.70;;;8.90;;
20857;SDS011;10589;53.636;10.012;2024-02-14T14:56:44;14.63;;;9.13;;
20857;SDS011;10589;53.636;10.012;2024-02-14T14:59:11;13.30;;;8.83;;
20857;SDS011;10589;53.636;10.012;2024-02-14T15:01:37;16.47;;;9.30;;
20857;SDS011;10589;53.636;10.012;2024-02-14T15:04:03;15.93;;;9.43;;
20857;SDS011;10589;53.636;10.012;2024-02-14T15:06:31;15.67;;;10.47;;
20857;SDS011;10589;53.636;10.012;2024-02-14T15:08:56;16.97;;;10.13;;
20857;SDS011;10589;53.636;10.012;2024-02-14T15:11:22;17.63;;;11.10;;
20857;SDS011;10589;53.636;10.012;2024-02-14T15:13:48;18.00;;;10.87;;
20857;SDS011;10589;53.636;10.012;2024-02-14T15:16:13;18.33;;;11.50;;
20857;SDS011;10589;53.636;10.012;2024-02-14T15:18:39;20.27;;;12.13;;
20857;SDS011;10589;53.636;10.012;2024-02-14T15:21:08;20.47;;;11.73;;
20857;SDS011;10589;53.636;10.012;2024-02-14T15:23:33;16.37;;;11.00;;
20857;SDS011;10589;53.636;10.012;2024-02-14T15:25:59;21.20;;;12.40;;
20857;SDS011;10589;53.636;10.012;2024-02-14T15:28:29;20.60;;;11.13;;
20857;SDS011;10589;53.636;10.012;2024-02-14T15:30:55;18.23;;;13.00;;
20857;SDS011;10589;53.636;10.012;2024-02-14T15:33:40;23.97;;;12.83;;
20857;SDS011;10589;53.636;10.012;2024-02-14T15:36:06;19.20;;;12.07;;
20857;SDS011;10589;53.636;10.012;2024-02-14T15:38:32;21.43;;;12.67;;
20857;SDS011;10589;53.636;10.012;2024-02-14T15:40:57;20.30;;;13.33;;
20857;SDS011;10589;53.636;10.012;2024-02-14T15:43:25;22.87;;;12.67;;
20857;SDS011;10589;53.636;10.012;2024-02-14T15:45:52;18.77;;;12.73;;
20857;SDS011;10589;53.636;10.012;2024-02-14T15:48:18;20.07;;;12.37;;
20857;SDS011;10589;53.636;10.012;2024-02-14T15:50:45;20.20;;;12.97;;
20857;SDS011;10589;53.636;10.012;2024-02-14T15:53:14;20.57;;;12.83;;
20857;SDS011;10589;53.636;10.012;2024-02-14T15:55:40;20.47;;;12.37;;
20857;SDS011;10589;53.636;10.012;2024-02-14T15:58:07;22.43;;;13.47;;
20857;SDS011;10589;53.636;10.012;2024-02-14T16:00:33;21.47;;;13.77;;
20857;SDS011;10589;53.636;10.012;2024-02-14T16:03:00;21.97;;;12.57;;
20857;SDS011;10589;53.636;10.012;2024-02-14T16:05:27;22.60;;;12.73;;
20857;SDS011;10589;53.636;10.012;2024-02-14T16:07:54;23.20;;;13.17;;
20857;SDS011;10589;53.636;10.012;2024-02-14T16:10:20;18.67;;;12.63;;
20857;SDS011;10589;53.636;10.012;2024-02-14T16:12:46;20.30;;;12.23;;
20857;SDS011;10589;53.636;10.012;2024-02-14T16:15:13;22.47;;;13.50;;
20857;SDS011;10589;53.636;10.012;2024-02-14T16:17:39;22.60;;;12.43;;
20857;SDS011;10589;53.636;10.012;2024-02-14T16:20:08;23.83;;;14.13;;
20857;SDS011;10589;53.636;10.012;2024-02-14T16:22:35;18.17;;;12.17;;
20857;SDS011;10589;53.636;10.012;2024-02-14T16:25:01;24.50;;;14.27;;
20857;SDS011;10589;53.636;10.012;2024-02-14T16:27:27;23.67;;;14.10;;
20857;SDS011;10589;53.636;10.012;2024-02-14T16:29:53;26.53;;;14.77;;
20857;SDS011;10589;53.636;10.012;2024-02-14T16:32:19;25.27;;;14.70;;
20857;SDS011;10589;53.636;10.012;2024-02-14T16:34:44;28.23;;;15.93;;
20857;SDS011;10589;53.636;10.012;2024-02-14T16:37:16;27.67;;;14.67;;
20857;SDS011;10589;53.636;10.012;2024-02-14T16:39:45;31.23;;;16.23;;
20857;SDS011;10589;53.636;10.012;2024-02-14T16:42:11;24.40;;;14.17;;
20857;SDS011;10589;53.636;10.012;2024-02-14T16:44:37;26.37;;;15.90;;
20857;SDS011;10589;53.636;10.012;2024-02-14T16:47:03;23.97;;;14.83;;
20857;SDS011;10589;53.636;10.012;2024-02-14T16:49:29;32.13;;;16.53;;
20857;SDS011;10589;53.636;10.012;2024-02-14T16:51:55;27.00;;;15.53;;
20857;SDS011;10589;53.636;10.012;2024-02-14T16:54:21;26.23;;;15.30;;
20857;SDS011;10589;53.636;10.012;2024-02-14T16:56:47;30.50;;;17.13;;
20857;SDS011;10589;53.636;10.012;2024-02-14T16:59:13;32.90;;;17.50;;
20857;SDS011;10589;53.636;10.012;2024-02-14T17:01:39;35.37;;;18.37;;
20857;SDS011;10589;53.636;10.012;2024-02-14T17:04:04;36.93;;;18.77;;
20857;SDS011;10589;53.636;10.012;2024-02-14T17:06:30;36.67;;;19.13;;
20857;SDS011;10589;53.636;10.012;2024-02-14T17:08:56;35.57;;;19.00;;
20857;SDS011;10589;53.636;10.012;2024-02-14T17:11:22;35.33;;;18.70;;
20857;SDS011;10589;53.636;10.012;2024-02-14T17:13:47;34.37;;;18.00;;
20857;SDS011;10589;53.636;10.012;2024-02-14T17:16:13;36.23;;;18.80;;
20857;SDS011;10589;53.636;10.012;2024-02-14T17:18:40;40.30;;;19.83;;
20857;SDS011;10589;53.636;10.012;2024-02-14T17:21:06;40.63;;;18.70;;
20857;SDS011;10589;53.636;10.012;2024-02-14T17:23:32;37.57;;;19.33;;
20857;SDS011;10589;53.636;10.012;2024-02-14T17:25:58;31.77;;;17.23;;
20857;SDS011;10589;53.636;10.012;2024-02-14T17:28:25;36.27;;;18.73;;
20857;SDS011;10589;53.636;10.012;2024-02-14T17:30:51;33.50;;;18.77;;
20857;SDS011;10589;53.636;10.012;2024-02-14T17:33:17;37.00;;;18.97;;
20857;SDS011;10589;53.636;10.012;2024-02-14T17:35:42;37.30;;;18.10;;
20857;SDS011;10589;53.636;10.012;2024-02-14T17:38:08;39.63;;;18.60;;
20857;SDS011;10589;53.636;10.012;2024-02-14T17:40:34;38.27;;;19.07;;
20857;SDS011;10589;53.636;10.012;2024-02-14T17:42:59;33.30;;;17.20;;
20857;SDS011;10589;53.636;10.012;2024-02-14T17:45:25;35.13;;;18.03;;
20857;SDS011;10589;53.636;10.012;2024-02-14T17:47:51;29.13;;;15.73;;
20857;SDS011;10589;53.636;10.012;2024-02-14T17:50:16;38.93;;;18.27;;
20857;SDS011;10589;53.636;10.012;2024-02-14T17:52:42;40.93;;;18.33;;
20857;SDS011;10589;53.636;10.012;2024-02-14T17:55:10;29.67;;;16.43;;
20857;SDS011;10589;53.636;10.012;2024-02-14T17:57:36;30.50;;;16.40;;
20857;SDS011;10589;53.636;10.012;2024-02-14T18:00:03;33.97;;;17.00;;
20857;SDS011;10589;53.636;10.012;2024-02-14T18:02:36;35.83;;;17.00;;
20857;SDS011;10589;53.636;10.012;2024-02-14T18:05:02;37.63;;;17.73;;
20857;SDS011;10589;53.636;10.012;2024-02-14T18:07:28;35.77;;;18.13;;
20857;SDS011;10589;53.636;10.012;2024-02-14T18:09:54;34.03;;;17.77;;
20857;SDS011;10589;53.636;10.012;2024-02-14T18:12:19;30.73;;;16.33;;
20857;SDS011;10589;53.636;10.012;2024-02-14T18:14:46;36.73;;;17.67;;
20857;SDS011;10589;53.636;10.012;2024-02-14T18:17:11;33.77;;;17.43;;
20857;SDS011;10589;53.636;10.012;2024-02-14T18:19:37;33.13;;;17.50;;
20857;SDS011;10589;53.636;10.012;2024-02-14T18:22:03;33.23;;;16.73;;
20857;SDS011;10589;53.636;10.012;2024-02-14T18:24:28;36.23;;;17.27;;
20857;SDS011;10589;53.636;10.012;2024-02-14T18:26:54;31.83;;;16.60;;
20857;SDS011;10589;53.636;10.012;2024-02-14T18:29:19;34.20;;;17.37;;
20857;SDS011;10589;53.636;10.012;2024-02-14T18:31:48;36.00;;;18.37;;
20857;SDS011;10589;53.636;10.012;2024-02-14T18:34:14;28.47;;;15.53;;
20857;SDS011;10589;53.636;10.012;2024-02-14T18:36:43;35.67;;;17.90;;
20857;SDS011;10589;53.636;10.012;2024-02-14T18:39:15;28.50;;;16.30;;
20857;SDS011;10589;53.636;10.012;2024-02-14T18:41:42;41.27;;;19.20;;
20857;SDS011;10589;53.636;10.012;2024-02-14T18:44:08;34.47;;;17.67;;
20857;SDS011;10589;53.636;10.012;2024-02-14T18:46:34;32.83;;;17.47;;
20857;SDS011;10589;53.636;10.012;2024-02-14T18:49:03;35.60;;;18.60;;
20857;SDS011;10589;53.636;10.012;2024-02-14T18:51:30;35.03;;;17.50;;
20857;SDS011;10589;53.636;10.012;2024-02-14T18:54:00;34.77;;;17.43;;
20857;SDS011;10589;53.636;10.012;2024-02-14T18:56:25;40.03;;;19.77;;
20857;SDS011;10589;53.636;10.012;2024-02-14T18:58:51;41.83;;;19.27;;
20857;SDS011;10589;53.636;10.012;2024-02-14T19:01:21;42.83;;;19.63;;
20857;SDS011;10589;53.636;10.012;2024-02-14T19:03:50;44.00;;;20.57;;